sensor_id;sensor_type;location;lat;lon;timestamp;P1;durP1;ratioP1;P2;durP2;ratioP2
24635;SDS011;12772;49.794;10.024;2022-10-17T00:00:54;2.78;;;2.58;;
24635;SDS011;12772;49.794;10.024;2022-10-17T00:04:56;3.53;;;2.08;;
24635;SDS011;12772;49.794;10.024;2022-10-17T00:08:58;2.97;;;2.10;;
24635;SDS011;12772;49.794;10.024;2022-10-17T00:13:00;2.20;;;2.00;;
24635;SDS011;12772;49.794;10.024;2022-10-17T00:17:02;2.33;;;2.13;;
24635;SDS011;12772;49.794;10.024;2022-10-17T00:21:05;2.63;;;2.40;;
24635;SDS011;12772;49.794;10.024;2022-10-17T00:25:07;3.75;;;2.00;;
24635;SDS011;12772;49.794;10.024;2022-10-17T00:29:09;2.90;;;1.95;;
24635;SDS011;12772;49.794;10.024;2022-10-17T00:33:11;3.33;;;2.00;;
24635;SDS011;12772;49.794;10.024;2022-10-17T00:37:13;4.82;;;2.60;;
24635;SDS011;12772;49.794;10.024;2022-10-17T00:41:17;5.00;;;2.30;;
24635;SDS011;12772;49.794;10.024;2022-10-17T00:45:24;2.13;;;2.03;;
24635;SDS011;12772;49.794;10.024;2022-10-17T00:49:29;2.53;;;2.30;;
24635;SDS011;12772;49.794;10.024;2022-10-17T00:53:34;1.67;;;1.58;;
24635;SDS011;12772;49.794;10.024;2022-10-17T00:57:37;2.22;;;2.03;;
24635;SDS011;12772;49.794;10.024;2022-10-17T01:01:40;3.45;;;2.17;;
24635;SDS011;12772;49.794;10.024;2022-10-17T01:05:49;2.60;;;2.22;;
24635;SDS011;12772;49.794;10.024;2022-10-17T01:09:51;3.60;;;2.35;;
24635;SDS011;12772;49.794;10.024;2022-10-17T01:14:41;3.15;;;2.28;;
24635;SDS011;12772;49.794;10.024;2022-10-17T01:18:31;3.53;;;2.22;;
24635;SDS011;12772;49.794;10.024;2022-10-17T01:31:44;3.55;;;2.22;;
24635;SDS011;12772;49.794;10.024;2022-10-17T01:36:00;2.13;;;1.98;;
24635;SDS011;12772;49.794;10.024;2022-10-17T01:40:26;4.55;;;2.60;;
24635;SDS011;12772;49.794;10.024;2022-10-17T01:49:00;7.72;;;3.42;;
24635;SDS011;12772;49.794;10.024;2022-10-17T01:53:12;10.93;;;4.88;;
24635;SDS011;12772;49.794;10.024;2022-10-17T01:58:02;6.40;;;4.50;;
24635;SDS011;12772;49.794;10.024;2022-10-17T02:01:58;7.97;;;4.32;;
24635;SDS011;12772;49.794;10.024;2022-10-17T02:06:02;7.88;;;4.43;;
24635;SDS011;12772;49.794;10.024;2022-10-17T02:10:04;6.25;;;3.40;;
24635;SDS011;12772;49.794;10.024;2022-10-17T02:14:19;5.32;;;3.30;;
24635;SDS011;12772;49.794;10.024;2022-10-17T02:19:37;5.28;;;3.30;;
24635;SDS011;12772;49.794;10.024;2022-10-17T02:31:45;3.22;;;2.72;;
24635;SDS011;12772;49.794;10.024;2022-10-17T02:35:51;3.60;;;2.47;;
24635;SDS011;12772;49.794;10.024;2022-10-17T02:39:56;4.07;;;2.55;;
24635;SDS011;12772;49.794;10.024;2022-10-17T02:43:59;2.85;;;2.60;;
24635;SDS011;12772;49.794;10.024;2022-10-17T02:48:08;3.65;;;2.97;;
24635;SDS011;12772;49.794;10.024;2022-10-17T02:56:21;5.85;;;2.75;;
24635;SDS011;12772;49.794;10.024;2022-10-17T03:00:26;4.32;;;2.45;;
24635;SDS011;12772;49.794;10.024;2022-10-17T03:04:30;3.53;;;2.13;;
24635;SDS011;12772;49.794;10.024;2022-10-17T03:08:32;2.25;;;2.15;;
24635;SDS011;12772;49.794;10.024;2022-10-17T03:12:34;3.47;;;2.33;;
24635;SDS011;12772;49.794;10.024;2022-10-17T03:16:36;3.40;;;1.67;;
24635;SDS011;12772;49.794;10.024;2022-10-17T03:20:38;2.33;;;2.13;;
24635;SDS011;12772;49.794;10.024;2022-10-17T03:24:40;3.72;;;2.10;;
24635;SDS011;12772;49.794;10.024;2022-10-17T03:28:42;2.88;;;2.28;;
24635;SDS011;12772;49.794;10.024;2022-10-17T03:32:44;8.20;;;2.55;;
24635;SDS011;12772;49.794;10.024;2022-10-17T03:36:46;2.35;;;2.10;;
24635;SDS011;12772;49.794;10.024;2022-10-17T03:40:54;3.90;;;2.53;;
24635;SDS011;12772;49.794;10.024;2022-10-17T03:44:57;3.75;;;3.05;;
24635;SDS011;12772;49.794;10.024;2022-10-17T03:48:59;4.32;;;3.08;;
24635;SDS011;12772;49.794;10.024;2022-10-17T03:53:01;5.30;;;3.00;;
24635;SDS011;12772;49.794;10.024;2022-10-17T03:57:03;3.85;;;2.90;;
24635;SDS011;12772;49.794;10.024;2022-10-17T04:01:05;6.60;;;3.28;;
24635;SDS011;12772;49.794;10.024;2022-10-17T04:05:08;5.28;;;4.57;;
24635;SDS011;12772;49.794;10.024;2022-10-17T04:09:11;9.73;;;5.63;;
24635;SDS011;12772;49.794;10.024;2022-10-17T04:13:13;8.25;;;5.88;;
24635;SDS011;12772;49.794;10.024;2022-10-17T04:17:15;9.25;;;5.72;;
24635;SDS011;12772;49.794;10.024;2022-10-17T04:21:17;6.55;;;5.28;;
24635;SDS011;12772;49.794;10.024;2022-10-17T04:25:19;7.72;;;4.88;;
24635;SDS011;12772;49.794;10.024;2022-10-17T04:29:21;5.30;;;4.03;;
24635;SDS011;12772;49.794;10.024;2022-10-17T04:33:24;5.70;;;4.43;;
24635;SDS011;12772;49.794;10.024;2022-10-17T04:37:27;5.10;;;4.45;;
24635;SDS011;12772;49.794;10.024;2022-10-17T04:41:30;6.10;;;4.68;;
24635;SDS011;12772;49.794;10.024;2022-10-17T04:45:32;4.45;;;3.85;;
24635;SDS011;12772;49.794;10.024;2022-10-17T04:49:34;4.90;;;4.15;;
24635;SDS011;12772;49.794;10.024;2022-10-17T04:53:37;6.80;;;3.92;;
24635;SDS011;12772;49.794;10.024;2022-10-17T04:57:40;8.50;;;4.18;;
24635;SDS011;12772;49.794;10.024;2022-10-17T05:01:42;4.05;;;3.65;;
24635;SDS011;12772;49.794;10.024;2022-10-17T05:05:44;7.03;;;3.78;;
24635;SDS011;12772;49.794;10.024;2022-10-17T05:09:46;5.63;;;4.05;;
24635;SDS011;12772;49.794;10.024;2022-10-17T05:13:49;3.85;;;3.28;;
24635;SDS011;12772;49.794;10.024;2022-10-17T05:17:55;5.47;;;4.07;;
24635;SDS011;12772;49.794;10.024;2022-10-17T05:21:57;3.30;;;3.00;;
24635;SDS011;12772;49.794;10.024;2022-10-17T05:25:59;6.60;;;3.20;;
24635;SDS011;12772;49.794;10.024;2022-10-17T05:30:01;6.40;;;3.42;;
24635;SDS011;12772;49.794;10.024;2022-10-17T05:34:04;4.43;;;2.88;;
24635;SDS011;12772;49.794;10.024;2022-10-17T05:38:06;3.50;;;2.30;;
24635;SDS011;12772;49.794;10.024;2022-10-17T05:42:08;2.60;;;2.40;;
24635;SDS011;12772;49.794;10.024;2022-10-17T05:46:10;2.30;;;2.10;;
24635;SDS011;12772;49.794;10.024;2022-10-17T05:50:12;7.20;;;2.67;;
24635;SDS011;12772;49.794;10.024;2022-10-17T05:54:14;4.85;;;2.90;;
24635;SDS011;12772;49.794;10.024;2022-10-17T05:58:16;7.32;;;4.22;;
24635;SDS011;12772;49.794;10.024;2022-10-17T06:02:18;5.65;;;3.75;;
24635;SDS011;12772;49.794;10.024;2022-10-17T06:06:21;5.80;;;3.80;;
24635;SDS011;12772;49.794;10.024;2022-10-17T06:10:23;5.60;;;3.58;;
24635;SDS011;12772;49.794;10.024;2022-10-17T06:14:25;6.38;;;3.90;;
24635;SDS011;12772;49.794;10.024;2022-10-17T06:18:27;4.57;;;3.92;;
24635;SDS011;12772;49.794;10.024;2022-10-17T06:22:29;7.95;;;4.05;;
24635;SDS011;12772;49.794;10.024;2022-10-17T06:26:31;4.80;;;4.07;;
24635;SDS011;12772;49.794;10.024;2022-10-17T06:30:34;5.53;;;4.10;;
24635;SDS011;12772;49.794;10.024;2022-10-17T06:34:39;7.60;;;4.63;;
24635;SDS011;12772;49.794;10.024;2022-10-17T06:38:41;5.80;;;3.65;;
24635;SDS011;12772;49.794;10.024;2022-10-17T06:42:43;4.85;;;4.10;;
24635;SDS011;12772;49.794;10.024;2022-10-17T06:46:45;5.05;;;3.88;;
24635;SDS011;12772;49.794;10.024;2022-10-17T06:50:47;6.32;;;4.00;;
24635;SDS011;12772;49.794;10.024;2022-10-17T06:54:51;8.10;;;4.55;;
24635;SDS011;12772;49.794;10.024;2022-10-17T06:58:53;4.60;;;4.20;;
24635;SDS011;12772;49.794;10.024;2022-10-17T07:02:55;8.13;;;5.07;;
24635;SDS011;12772;49.794;10.024;2022-10-17T07:06:57;9.90;;;6.05;;
24635;SDS011;12772;49.794;10.024;2022-10-17T07:11:08;8.57;;;5.07;;
24635;SDS011;12772;49.794;10.024;2022-10-17T07:15:12;7.57;;;5.03;;
24635;SDS011;12772;49.794;10.024;2022-10-17T07:19:14;6.47;;;4.90;;
24635;SDS011;12772;49.794;10.024;2022-10-17T07:23:16;7.15;;;5.00;;
24635;SDS011;12772;49.794;10.024;2022-10-17T07:27:18;7.45;;;5.07;;
24635;SDS011;12772;49.794;10.024;2022-10-17T07:31:20;5.78;;;3.88;;
24635;SDS011;12772;49.794;10.024;2022-10-17T07:35:23;6.78;;;4.57;;
24635;SDS011;12772;49.794;10.024;2022-10-17T07:39:25;6.68;;;4.50;;
24635;SDS011;12772;49.794;10.024;2022-10-17T07:43:27;4.53;;;4.10;;
24635;SDS011;12772;49.794;10.024;2022-10-17T07:47:30;5.68;;;4.20;;
24635;SDS011;12772;49.794;10.024;2022-10-17T07:51:35;6.05;;;4.05;;
24635;SDS011;12772;49.794;10.024;2022-10-17T07:55:37;7.50;;;5.88;;
24635;SDS011;12772;49.794;10.024;2022-10-17T07:59:40;9.32;;;5.85;;
24635;SDS011;12772;49.794;10.024;2022-10-17T08:03:42;9.00;;;5.80;;
24635;SDS011;12772;49.794;10.024;2022-10-17T08:07:45;8.93;;;4.72;;
24635;SDS011;12772;49.794;10.024;2022-10-17T08:11:47;6.80;;;4.30;;
24635;SDS011;12772;49.794;10.024;2022-10-17T08:15:49;7.93;;;4.75;;
24635;SDS011;12772;49.794;10.024;2022-10-17T08:19:51;3.88;;;3.45;;
24635;SDS011;12772;49.794;10.024;2022-10-17T08:23:53;7.22;;;3.92;;
24635;SDS011;12772;49.794;10.024;2022-10-17T08:27:56;4.95;;;3.40;;
24635;SDS011;12772;49.794;10.024;2022-10-17T08:31:58;6.40;;;3.90;;
24635;SDS011;12772;49.794;10.024;2022-10-17T08:36:01;4.55;;;3.15;;
24635;SDS011;12772;49.794;10.024;2022-10-17T08:40:04;4.65;;;2.95;;
24635;SDS011;12772;49.794;10.024;2022-10-17T08:48:17;5.90;;;3.20;;
24635;SDS011;12772;49.794;10.024;2022-10-17T08:52:35;4.85;;;3.83;;
24635;SDS011;12772;49.794;10.024;2022-10-17T08:56:43;6.00;;;3.33;;
24635;SDS011;12772;49.794;10.024;2022-10-17T09:01:10;5.88;;;2.85;;
24635;SDS011;12772;49.794;10.024;2022-10-17T09:18:41;4.95;;;2.70;;
24635;SDS011;12772;49.794;10.024;2022-10-17T09:22:48;5.85;;;2.50;;
24635;SDS011;12772;49.794;10.024;2022-10-17T09:27:04;10.63;;;2.65;;
24635;SDS011;12772;49.794;10.024;2022-10-17T09:31:34;3.80;;;2.28;;
24635;SDS011;12772;49.794;10.024;2022-10-17T09:35:45;3.08;;;2.20;;
24635;SDS011;12772;49.794;10.024;2022-10-17T09:39:48;3.17;;;2.00;;
24635;SDS011;12772;49.794;10.024;2022-10-17T09:43:56;3.95;;;2.10;;
24635;SDS011;12772;49.794;10.024;2022-10-17T09:52:32;2.55;;;2.33;;
24635;SDS011;12772;49.794;10.024;2022-10-17T10:05:17;3.42;;;2.50;;
24635;SDS011;12772;49.794;10.024;2022-10-17T10:09:21;5.68;;;2.03;;
24635;SDS011;12772;49.794;10.024;2022-10-17T10:13:26;3.15;;;2.00;;
24635;SDS011;12772;49.794;10.024;2022-10-17T10:21:38;4.78;;;2.17;;
24635;SDS011;12772;49.794;10.024;2022-10-17T10:25:57;4.57;;;2.55;;
24635;SDS011;12772;49.794;10.024;2022-10-17T10:30:04;4.80;;;2.17;;
24635;SDS011;12772;49.794;10.024;2022-10-17T10:38:17;1.95;;;1.77;;
24635;SDS011;12772;49.794;10.024;2022-10-17T10:42:23;5.13;;;2.30;;
24635;SDS011;12772;49.794;10.024;2022-10-17T10:46:30;3.42;;;2.10;;
24635;SDS011;12772;49.794;10.024;2022-10-17T10:50:36;3.35;;;2.10;;
24635;SDS011;12772;49.794;10.024;2022-10-17T10:54:45;2.22;;;1.63;;
24635;SDS011;12772;49.794;10.024;2022-10-17T10:59:44;1.65;;;1.55;;
24635;SDS011;12772;49.794;10.024;2022-10-17T11:03:28;3.50;;;1.63;;
24635;SDS011;12772;49.794;10.024;2022-10-17T11:08:17;2.20;;;1.80;;
24635;SDS011;12772;49.794;10.024;2022-10-17T11:16:30;1.80;;;1.55;;
24635;SDS011;12772;49.794;10.024;2022-10-17T11:24:58;3.67;;;2.15;;
24635;SDS011;12772;49.794;10.024;2022-10-17T11:29:08;3.13;;;2.00;;
24635;SDS011;12772;49.794;10.024;2022-10-17T11:33:14;2.33;;;1.90;;
24635;SDS011;12772;49.794;10.024;2022-10-17T11:37:24;6.57;;;2.42;;
24635;SDS011;12772;49.794;10.024;2022-10-17T11:41:37;5.78;;;2.10;;
24635;SDS011;12772;49.794;10.024;2022-10-17T11:45:49;2.35;;;2.08;;
24635;SDS011;12772;49.794;10.024;2022-10-17T11:54:23;3.30;;;1.88;;
24635;SDS011;12772;49.794;10.024;2022-10-17T12:02:56;3.78;;;1.95;;
24635;SDS011;12772;49.794;10.024;2022-10-17T12:15:53;4.40;;;1.92;;
24635;SDS011;12772;49.794;10.024;2022-10-17T12:24:30;4.15;;;1.92;;
24635;SDS011;12772;49.794;10.024;2022-10-17T12:28:45;2.65;;;1.80;;
24635;SDS011;12772;49.794;10.024;2022-10-17T12:32:52;4.18;;;2.08;;
24635;SDS011;12772;49.794;10.024;2022-10-17T12:37:09;1.77;;;1.60;;
24635;SDS011;12772;49.794;10.024;2022-10-17T12:41:14;3.42;;;1.73;;
24635;SDS011;12772;49.794;10.024;2022-10-17T12:49:49;3.30;;;1.95;;
24635;SDS011;12772;49.794;10.024;2022-10-17T12:58:04;3.88;;;1.80;;
24635;SDS011;12772;49.794;10.024;2022-10-17T13:02:16;2.60;;;1.60;;
24635;SDS011;12772;49.794;10.024;2022-10-17T13:06:24;1.80;;;1.65;;
24635;SDS011;12772;49.794;10.024;2022-10-17T13:10:30;2.10;;;1.65;;
24635;SDS011;12772;49.794;10.024;2022-10-17T13:14:36;4.22;;;1.52;;
24635;SDS011;12772;49.794;10.024;2022-10-17T13:18:41;1.65;;;1.55;;
24635;SDS011;12772;49.794;10.024;2022-10-17T13:22:53;3.00;;;1.65;;
24635;SDS011;12772;49.794;10.024;2022-10-17T13:26:58;3.03;;;1.83;;
24635;SDS011;12772;49.794;10.024;2022-10-17T13:31:01;1.88;;;1.52;;
24635;SDS011;12772;49.794;10.024;2022-10-17T13:35:04;3.28;;;1.60;;
24635;SDS011;12772;49.794;10.024;2022-10-17T13:39:13;2.47;;;1.92;;
24635;SDS011;12772;49.794;10.024;2022-10-17T13:43:19;5.30;;;1.60;;
24635;SDS011;12772;49.794;10.024;2022-10-17T13:47:25;3.45;;;1.60;;
24635;SDS011;12772;49.794;10.024;2022-10-17T13:51:28;2.40;;;1.90;;
24635;SDS011;12772;49.794;10.024;2022-10-17T13:55:31;2.75;;;1.63;;
24635;SDS011;12772;49.794;10.024;2022-10-17T13:59:37;4.18;;;1.77;;
24635;SDS011;12772;49.794;10.024;2022-10-17T14:03:41;3.00;;;1.30;;
24635;SDS011;12772;49.794;10.024;2022-10-17T14:07:54;2.35;;;1.45;;
24635;SDS011;12772;49.794;10.024;2022-10-17T14:12:18;2.15;;;1.70;;
24635;SDS011;12772;49.794;10.024;2022-10-17T14:16:21;3.75;;;1.70;;
24635;SDS011;12772;49.794;10.024;2022-10-17T14:20:25;2.05;;;1.70;;
24635;SDS011;12772;49.794;10.024;2022-10-17T14:24:28;2.80;;;1.52;;
24635;SDS011;12772;49.794;10.024;2022-10-17T14:28:31;2.00;;;1.30;;
24635;SDS011;12772;49.794;10.024;2022-10-17T14:32:35;1.85;;;1.67;;
24635;SDS011;12772;49.794;10.024;2022-10-17T14:36:38;1.75;;;1.45;;
24635;SDS011;12772;49.794;10.024;2022-10-17T14:40:48;5.05;;;1.73;;
24635;SDS011;12772;49.794;10.024;2022-10-17T14:44:51;2.67;;;1.45;;
24635;SDS011;12772;49.794;10.024;2022-10-17T14:48:57;1.60;;;1.50;;
24635;SDS011;12772;49.794;10.024;2022-10-17T14:53:06;1.88;;;1.45;;
24635;SDS011;12772;49.794;10.024;2022-10-17T15:01:41;2.95;;;1.60;;
24635;SDS011;12772;49.794;10.024;2022-10-17T15:05:43;4.80;;;1.83;;
24635;SDS011;12772;49.794;10.024;2022-10-17T15:09:47;4.80;;;1.80;;
24635;SDS011;12772;49.794;10.024;2022-10-17T15:13:50;3.78;;;1.55;;
24635;SDS011;12772;49.794;10.024;2022-10-17T15:17:52;2.78;;;1.90;;
24635;SDS011;12772;49.794;10.024;2022-10-17T15:21:54;7.22;;;1.50;;
24635;SDS011;12772;49.794;10.024;2022-10-17T15:25:56;3.38;;;1.70;;
24635;SDS011;12772;49.794;10.024;2022-10-17T15:29:58;3.50;;;1.55;;
24635;SDS011;12772;49.794;10.024;2022-10-17T15:34:00;3.05;;;1.60;;
24635;SDS011;12772;49.794;10.024;2022-10-17T15:38:05;4.35;;;1.67;;
24635;SDS011;12772;49.794;10.024;2022-10-17T15:42:08;5.13;;;1.80;;
24635;SDS011;12772;49.794;10.024;2022-10-17T15:46:12;5.35;;;1.95;;
24635;SDS011;12772;49.794;10.024;2022-10-17T15:50:17;4.82;;;1.70;;
24635;SDS011;12772;49.794;10.024;2022-10-17T15:54:19;2.05;;;1.67;;
24635;SDS011;12772;49.794;10.024;2022-10-17T15:58:21;2.80;;;1.83;;
24635;SDS011;12772;49.794;10.024;2022-10-17T16:02:23;3.60;;;1.80;;
24635;SDS011;12772;49.794;10.024;2022-10-17T16:06:25;5.32;;;2.28;;
24635;SDS011;12772;49.794;10.024;2022-10-17T16:10:27;3.28;;;2.20;;
24635;SDS011;12772;49.794;10.024;2022-10-17T16:14:29;3.88;;;1.75;;
24635;SDS011;12772;49.794;10.024;2022-10-17T16:18:32;7.07;;;1.75;;
24635;SDS011;12772;49.794;10.024;2022-10-17T16:22:34;3.20;;;2.17;;
24635;SDS011;12772;49.794;10.024;2022-10-17T16:26:36;5.50;;;2.28;;
24635;SDS011;12772;49.794;10.024;2022-10-17T16:30:42;4.18;;;2.45;;
24635;SDS011;12772;49.794;10.024;2022-10-17T16:34:45;4.05;;;2.20;;
24635;SDS011;12772;49.794;10.024;2022-10-17T16:41:39;4.32;;;2.33;;
24635;SDS011;12772;49.794;10.024;2022-10-17T16:45:41;3.30;;;2.30;;
24635;SDS011;12772;49.794;10.024;2022-10-17T16:49:43;3.72;;;2.33;;
24635;SDS011;12772;49.794;10.024;2022-10-17T16:53:46;5.63;;;3.47;;
24635;SDS011;12772;49.794;10.024;2022-10-17T16:57:50;15.48;;;8.82;;
24635;SDS011;12772;49.794;10.024;2022-10-17T17:01:52;6.78;;;4.53;;
24635;SDS011;12772;49.794;10.024;2022-10-17T17:05:54;9.07;;;5.13;;
24635;SDS011;12772;49.794;10.024;2022-10-17T17:09:56;9.88;;;5.05;;
24635;SDS011;12772;49.794;10.024;2022-10-17T17:13:58;9.48;;;6.07;;
24635;SDS011;12772;49.794;10.024;2022-10-17T17:18:01;8.50;;;6.35;;
24635;SDS011;12772;49.794;10.024;2022-10-17T17:22:03;7.20;;;6.00;;
24635;SDS011;12772;49.794;10.024;2022-10-17T17:26:08;12.70;;;5.68;;
24635;SDS011;12772;49.794;10.024;2022-10-17T17:30:12;6.82;;;5.30;;
24635;SDS011;12772;49.794;10.024;2022-10-17T17:34:14;6.75;;;3.90;;
24635;SDS011;12772;49.794;10.024;2022-10-17T17:38:16;4.88;;;3.95;;
24635;SDS011;12772;49.794;10.024;2022-10-17T17:42:18;6.57;;;3.53;;
24635;SDS011;12772;49.794;10.024;2022-10-17T17:46:20;6.47;;;4.07;;
24635;SDS011;12772;49.794;10.024;2022-10-17T17:50:23;8.48;;;3.53;;
24635;SDS011;12772;49.794;10.024;2022-10-17T17:54:25;5.03;;;4.15;;
24635;SDS011;12772;49.794;10.024;2022-10-17T17:58:28;4.80;;;3.33;;
24635;SDS011;12772;49.794;10.024;2022-10-17T18:02:30;8.95;;;4.05;;
24635;SDS011;12772;49.794;10.024;2022-10-17T18:06:32;7.82;;;4.60;;
24635;SDS011;12772;49.794;10.024;2022-10-17T18:10:34;7.43;;;4.35;;
24635;SDS011;12772;49.794;10.024;2022-10-17T18:14:36;5.00;;;4.05;;
24635;SDS011;12772;49.794;10.024;2022-10-17T18:18:39;6.93;;;4.38;;
24635;SDS011;12772;49.794;10.024;2022-10-17T18:22:42;9.45;;;4.38;;
24635;SDS011;12772;49.794;10.024;2022-10-17T18:26:44;7.88;;;3.95;;
24635;SDS011;12772;49.794;10.024;2022-10-17T18:30:46;7.55;;;4.05;;
24635;SDS011;12772;49.794;10.024;2022-10-17T18:34:48;8.25;;;3.58;;
24635;SDS011;12772;49.794;10.024;2022-10-17T18:38:51;5.53;;;3.17;;
24635;SDS011;12772;49.794;10.024;2022-10-17T18:42:55;6.20;;;3.67;;
24635;SDS011;12772;49.794;10.024;2022-10-17T18:46:58;7.50;;;3.17;;
24635;SDS011;12772;49.794;10.024;2022-10-17T18:51:01;4.78;;;3.17;;
24635;SDS011;12772;49.794;10.024;2022-10-17T18:55:05;3.90;;;3.33;;
24635;SDS011;12772;49.794;10.024;2022-10-17T18:59:07;7.60;;;3.97;;
24635;SDS011;12772;49.794;10.024;2022-10-17T19:03:09;4.28;;;3.80;;
24635;SDS011;12772;49.794;10.024;2022-10-17T19:07:12;4.47;;;3.70;;
24635;SDS011;12772;49.794;10.024;2022-10-17T19:11:17;7.25;;;3.65;;
24635;SDS011;12772;49.794;10.024;2022-10-17T19:15:21;6.35;;;4.07;;
24635;SDS011;12772;49.794;10.024;2022-10-17T19:19:23;4.38;;;3.88;;
24635;SDS011;12772;49.794;10.024;2022-10-17T19:23:26;4.97;;;3.83;;
24635;SDS011;12772;49.794;10.024;2022-10-17T19:27:29;6.18;;;4.22;;
24635;SDS011;12772;49.794;10.024;2022-10-17T19:31:32;9.10;;;4.38;;
24635;SDS011;12772;49.794;10.024;2022-10-17T19:35:35;9.38;;;4.28;;
24635;SDS011;12772;49.794;10.024;2022-10-17T19:39:37;4.55;;;3.78;;
24635;SDS011;12772;49.794;10.024;2022-10-17T19:43:40;5.72;;;3.85;;
24635;SDS011;12772;49.794;10.024;2022-10-17T19:47:43;5.03;;;3.72;;
24635;SDS011;12772;49.794;10.024;2022-10-17T19:51:45;6.85;;;3.95;;
24635;SDS011;12772;49.794;10.024;2022-10-17T19:55:47;7.05;;;3.47;;
24635;SDS011;12772;49.794;10.024;2022-10-17T19:59:49;6.88;;;3.92;;
24635;SDS011;12772;49.794;10.024;2022-10-17T20:03:51;4.90;;;3.60;;
24635;SDS011;12772;49.794;10.024;2022-10-17T20:07:54;4.55;;;3.70;;
24635;SDS011;12772;49.794;10.024;2022-10-17T20:11:56;4.18;;;3.42;;
24635;SDS011;12772;49.794;10.024;2022-10-17T20:15:58;3.97;;;2.92;;
24635;SDS011;12772;49.794;10.024;2022-10-17T20:20:00;4.53;;;3.90;;
24635;SDS011;12772;49.794;10.024;2022-10-17T20:24:04;8.50;;;3.92;;
24635;SDS011;12772;49.794;10.024;2022-10-17T20:28:08;7.57;;;3.80;;
24635;SDS011;12772;49.794;10.024;2022-10-17T20:32:10;4.97;;;3.30;;
24635;SDS011;12772;49.794;10.024;2022-10-17T20:36:13;5.88;;;3.90;;
24635;SDS011;12772;49.794;10.024;2022-10-17T20:40:16;4.00;;;3.60;;
24635;SDS011;12772;49.794;10.024;2022-10-17T20:44:18;5.75;;;4.32;;
24635;SDS011;12772;49.794;10.024;2022-10-17T20:48:20;5.63;;;3.30;;
24635;SDS011;12772;49.794;10.024;2022-10-17T20:52:23;6.40;;;3.80;;
24635;SDS011;12772;49.794;10.024;2022-10-17T20:56:26;6.82;;;3.90;;
24635;SDS011;12772;49.794;10.024;2022-10-17T21:00:30;11.00;;;4.20;;
24635;SDS011;12772;49.794;10.024;2022-10-17T21:04:32;7.10;;;3.83;;
24635;SDS011;12772;49.794;10.024;2022-10-17T21:08:34;7.72;;;3.97;;
24635;SDS011;12772;49.794;10.024;2022-10-17T21:12:36;4.65;;;3.72;;
24635;SDS011;12772;49.794;10.024;2022-10-17T21:16:38;4.28;;;3.88;;
24635;SDS011;12772;49.794;10.024;2022-10-17T21:20:40;4.53;;;4.13;;
24635;SDS011;12772;49.794;10.024;2022-10-17T21:24:42;7.35;;;3.65;;
24635;SDS011;12772;49.794;10.024;2022-10-17T21:28:45;7.68;;;4.13;;
24635;SDS011;12772;49.794;10.024;2022-10-17T21:32:51;4.13;;;3.72;;
24635;SDS011;12772;49.794;10.024;2022-10-17T21:36:54;4.13;;;3.45;;
24635;SDS011;12772;49.794;10.024;2022-10-17T21:40:56;9.10;;;4.53;;
24635;SDS011;12772;49.794;10.024;2022-10-17T21:44:58;8.32;;;3.78;;
24635;SDS011;12772;49.794;10.024;2022-10-17T21:49:00;5.95;;;3.78;;
24635;SDS011;12772;49.794;10.024;2022-10-17T21:53:02;4.78;;;3.33;;
24635;SDS011;12772;49.794;10.024;2022-10-17T21:57:04;4.00;;;3.60;;
24635;SDS011;12772;49.794;10.024;2022-10-17T22:05:22;9.52;;;3.60;;
24635;SDS011;12772;49.794;10.024;2022-10-17T22:09:24;4.60;;;3.85;;
24635;SDS011;12772;49.794;10.024;2022-10-17T22:13:27;4.25;;;3.47;;
24635;SDS011;12772;49.794;10.024;2022-10-17T22:17:29;6.22;;;3.42;;
24635;SDS011;12772;49.794;10.024;2022-10-17T22:21:31;4.43;;;3.55;;
24635;SDS011;12772;49.794;10.024;2022-10-17T22:25:34;6.47;;;3.67;;
24635;SDS011;12772;49.794;10.024;2022-10-17T22:29:36;9.57;;;4.78;;
24635;SDS011;12772;49.794;10.024;2022-10-17T22:33:39;5.80;;;4.25;;
24635;SDS011;12772;49.794;10.024;2022-10-17T22:37:41;4.93;;;3.63;;
24635;SDS011;12772;49.794;10.024;2022-10-17T22:41:43;4.57;;;3.65;;
24635;SDS011;12772;49.794;10.024;2022-10-17T22:45:51;6.78;;;3.22;;
24635;SDS011;12772;49.794;10.024;2022-10-17T22:49:54;4.00;;;3.30;;
24635;SDS011;12772;49.794;10.024;2022-10-17T22:53:56;5.57;;;3.55;;
24635;SDS011;12772;49.794;10.024;2022-10-17T22:57:59;3.65;;;3.17;;
24635;SDS011;12772;49.794;10.024;2022-10-17T23:02:01;3.75;;;3.15;;
24635;SDS011;12772;49.794;10.024;2022-10-17T23:06:03;4.63;;;3.97;;
24635;SDS011;12772;49.794;10.024;2022-10-17T23:10:05;5.68;;;3.70;;
24635;SDS011;12772;49.794;10.024;2022-10-17T23:14:07;5.40;;;3.58;;
24635;SDS011;12772;49.794;10.024;2022-10-17T23:18:09;4.80;;;3.90;;
24635;SDS011;12772;49.794;10.024;2022-10-17T23:22:12;5.38;;;3.42;;
24635;SDS011;12772;49.794;10.024;2022-10-17T23:26:14;7.53;;;3.80;;
24635;SDS011;12772;49.794;10.024;2022-10-17T23:30:16;5.38;;;3.65;;
24635;SDS011;12772;49.794;10.024;2022-10-17T23:34:18;6.53;;;4.22;;
24635;SDS011;12772;49.794;10.024;2022-10-17T23:38:20;7.47;;;3.75;;
24635;SDS011;12772;49.794;10.024;2022-10-17T23:42:23;4.47;;;3.63;;
24635;SDS011;12772;49.794;10.024;2022-10-17T23:46:25;6.18;;;3.90;;
24635;SDS011;12772;49.794;10.024;2022-10-17T23:50:27;5.97;;;4.18;;
24635;SDS011;12772;49.794;10.024;2022-10-17T23:54:29;5.82;;;3.70;;
24635;SDS011;12772;49.794;10.024;2022-10-17T23:58:31;6.75;;;4.40;;
